Thunder radar more information blitzortung!


Löydät sääaseman tiedot myös:

European Weather Network

Finland Weather Exchange

Weather Underground

AWEKAS



Weather Underground säähistoriasivu

Päivittäin yhteenveto Kesäkuu 1, 2017 Yksiköt:  Englantilaiset    Metriset   Molemmat
« Edellinen Päivä
Seuraava Päivä »
Päivittäin Viikoittain Kuukausittain Vuosittain Mukautettu
  Korkea: Matala: Keskiarvo:
Lämpötila: TemperatureC °F 2.4 °F 6.3 °F
Kastepiste: DewpointC °F -3.7 °F -0.6 °F
Kosteus: Humidity % 43 % 62 %
Tuulen nopeus: WindSpeedKMH mph 0.0 mph 2.6 mph
Tuulenpuuska: WindSpeedGustKMH mph - -
Tuuli:- - NW
Ilmanpaine: PressurehPa in 998.9 in -
Sade: 0.0 in    
Historical Graphs
 
 
Taulukkotiedot Kesäkuu 1, 2017
Aika Lämpötila Kastepiste Ilmanpaine Tuuli Tuulen nopeus Tuulenpuuska Kosteus Sademäärä (tunneittain)
TemperatureC °F DewpointC °F PressurehPa in Calm     Humidity % HourlyPrecipMM in
00:00 5.4 °F 0.9 °F 998.9 in Calm   6.4 mph 73 % 0.0 in
00:15 5.2 °F 0.8 °F 998.9 in Calm   8.0 mph 73 % 0.0 in
00:30 5.2 °F 0.7 °F 999.2 in Calm   9.7 mph 73 % 0.0 in
00:45 5.6 °F 0.4 °F 998.9 in NW 4.8 mph 12.9 mph 69 % 0.0 in
01:00 5.2 °F 0.3 °F 998.9 in Calm   1.6 mph 71 % 0.0 in
01:15 4.3 °F -0.1 °F 998.9 in Calm   4.8 mph 73 % 0.0 in
01:30 3.9 °F 0.1 °F 998.9 in Calm     76 % 0.0 in
01:45 4.3 °F 0.1 °F 999.2 in WNW 4.8 mph 14.5 mph 74 % 0.0 in
02:00 5.0 °F 0.7 °F 998.9 in NW 1.6 mph 11.3 mph 74 % 0.0 in
02:15 4.8 °F 0.7 °F 998.9 in Calm   3.2 mph 75 % 0.0 in
02:30 4.2 °F 0.5 °F 998.9 in WNW 1.6 mph 4.8 mph 77 % 0.0 in
02:45 3.8 °F 0.5 °F 998.9 in Calm   1.6 mph 79 % 0.0 in
03:00 3.6 °F 0.4 °F 998.9 in Calm   1.6 mph 80 % 0.0 in
03:15 3.2 °F 0.3 °F 999.2 in Calm   6.4 mph 81 % 0.0 in
03:30 3.4 °F 0.7 °F 999.2 in Calm   4.8 mph 82 % 0.0 in
03:45 3.5 °F 0.9 °F 999.2 in NW 1.6 mph 6.4 mph 83 % 0.0 in
04:00 3.4 °F 0.8 °F 999.2 in NW 1.6 mph 6.4 mph 83 % 0.0 in
04:15 3.1 °F 0.6 °F 999.2 in Calm   1.6 mph 84 % 0.0 in
04:30 2.6 °F 0.5 °F 999.2 in Calm     86 % 0.0 in
04:45 2.4 °F 0.5 °F 999.2 in Calm     87 % 0.0 in
05:00 2.8 °F 1.1 °F 999.2 in Calm   6.4 mph 89 % 0.0 in
05:15 3.6 °F 1.6 °F 999.2 in NW 1.6 mph 6.4 mph 87 % 0.0 in
05:30 4.1 °F 1.6 °F 999.2 in NW 1.6 mph 8.0 mph 84 % 0.0 in
05:45 4.4 °F 1.8 °F 999.2 in NW 4.8 mph 11.3 mph 83 % 0.0 in
06:00 4.6 °F 1.9 °F 999.2 in NW 3.2 mph 11.3 mph 83 % 0.0 in
06:15 4.8 °F 2.1 °F 999.5 in NW 4.8 mph 16.1 mph 83 % 0.0 in
06:30 4.9 °F 2.1 °F 999.2 in NNW 3.2 mph 8.0 mph 82 % 0.0 in
06:45 4.9 °F 2.1 °F 999.5 in NW 6.4 mph 14.5 mph 82 % 0.0 in
07:00 4.9 °F 2.1 °F 999.5 in NW 4.8 mph 16.1 mph 82 % 0.0 in
07:15 5.1 °F 2.1 °F 999.5 in NW 6.4 mph 17.7 mph 81 % 0.0 in
07:30 5.0 °F 1.8 °F 999.9 in NW 6.4 mph 19.3 mph 80 % 0.0 in
07:45 5.1 °F 1.9 °F 999.9 in NW 6.4 mph 20.9 mph 80 % 0.0 in
08:00 5.5 °F 1.8 °F 999.9 in North 4.8 mph 11.3 mph 77 % 0.0 in
08:15 5.8 °F 1.7 °F 1000.2 in NW 6.4 mph 19.3 mph 75 % 0.0 in
08:30 5.6 °F 1.7 °F 1000.2 in NW 8.0 mph 16.1 mph 76 % 0.0 in
08:45 5.7 °F 1.4 °F 1000.2 in NNW 4.8 mph 8.0 mph 74 % 0.0 in
09:00 5.4 °F 0.8 °F 1000.2 in NW 6.4 mph 16.1 mph 72 % 0.0 in
09:30 7.1 °F 1.2 °F 1000.2 in NNW 4.8 mph 16.1 mph 66 % 0.0 in
09:45 7.1 °F 0.3 °F 1000.2 in NNW 6.4 mph 25.7 mph 62 % 0.0 in
10:00 6.8 °F 0.2 °F 1000.2 in NNW 6.4 mph 17.7 mph 63 % 0.0 in
10:15 6.7 °F 0.3 °F 1000.2 in NNW 6.4 mph 16.1 mph 64 % 0.0 in
10:30 7.5 °F 0.2 °F 1000.6 in NNW 6.4 mph 14.5 mph 60 % 0.0 in
10:45 7.8 °F 0.5 °F 1000.6 in NW 8.0 mph 19.3 mph 60 % 0.0 in
11:00 8.3 °F 0.5 °F 1000.6 in NW 6.4 mph 19.3 mph 58 % 0.0 in
11:15 7.8 °F 0.1 °F 1000.9 in NNW 6.4 mph 16.1 mph 58 % 0.0 in
11:30 8.5 °F 0.5 °F 1000.9 in North 4.8 mph 12.9 mph 57 % 0.0 in
11:45 8.6 °F 0.1 °F 1000.9 in North 6.4 mph 14.5 mph 55 % 0.0 in
12:00 6.5 °F 0.6 °F 1001.2 in NW 8.0 mph 22.5 mph 66 % 0.0 in
12:15 7.8 °F 0.3 °F 1001.2 in NW 8.0 mph 20.9 mph 59 % 0.0 in
12:30 8.5 °F 0.2 °F 1001.2 in NNW 8.0 mph 16.1 mph 56 % 0.0 in
12:45 8.6 °F -1.3 °F 1001.6 in NNW 6.4 mph 17.7 mph 50 % 0.0 in
13:00 8.4 °F -1.7 °F 1001.9 in NNW 8.0 mph 25.7 mph 49 % 0.0 in
13:15 9.0 °F -2.3 °F 1001.6 in NNW 8.0 mph 19.3 mph 45 % 0.0 in
13:30 9.0 °F -1.7 °F 1001.9 in NW 8.0 mph 24.1 mph 47 % 0.0 in
13:45 8.4 °F -2.0 °F 1001.9 in North 8.0 mph 16.1 mph 48 % 0.0 in
14:00 9.1 °F -2.2 °F 1001.9 in NNW 8.0 mph 17.7 mph 45 % 0.0 in
14:15 9.0 °F -2.0 °F 1002.3 in NNW 4.8 mph 16.1 mph 46 % 0.0 in
14:30 8.9 °F -2.1 °F 1002.3 in North 6.4 mph 11.3 mph 46 % 0.0 in
14:45 8.6 °F -2.4 °F 1002.3 in NNW 8.0 mph 17.7 mph 46 % 0.0 in
15:00 8.8 °F -1.3 °F 1002.6 in North 1.6 mph 9.7 mph 49 % 0.0 in
15:15 8.6 °F -1.5 °F 1002.6 in Calm     49 % 0.0 in
15:30 9.1 °F -1.6 °F 1002.9 in Calm     47 % 0.0 in
15:45 9.2 °F -1.3 °F 1002.9 in Calm     48 % 0.0 in
16:00 8.7 °F -1.7 °F 1002.9 in Calm     48 % 0.0 in
16:15 9.6 °F -1.8 °F 1003.3 in Calm     45 % 0.0 in
16:30 8.9 °F -1.8 °F 1003.3 in Calm     47 % 0.0 in
16:45 8.1 °F -2.0 °F 1003.3 in Calm     49 % 0.0 in
17:00 7.9 °F -3.0 °F 1003.6 in Calm     46 % 0.0 in
17:15 8.1 °F -2.9 °F 1003.6 in Calm     46 % 0.0 in
17:30 8.6 °F -2.4 °F 1003.9 in Calm     46 % 0.0 in
17:45 8.8 °F -2.8 °F 1003.9 in Calm     44 % 0.0 in
18:00 8.6 °F -3.0 °F 1003.9 in Calm     44 % 0.0 in
18:15 8.4 °F -2.9 °F 1003.9 in Calm     45 % 0.0 in
18:30 8.2 °F -3.6 °F 1004.3 in Calm     43 % 0.0 in
18:45 8.3 °F -2.6 °F 1004.3 in Calm     46 % 0.0 in
19:00 8.4 °F -2.9 °F 1004.3 in Calm     45 % 0.0 in
19:15 8.3 °F -2.7 °F 1004.3 in Calm     46 % 0.0 in
19:30 8.2 °F -3.1 °F 1004.6 in Calm     45 % 0.0 in
19:45 7.8 °F -3.7 °F 1004.6 in Calm     44 % 0.0 in
20:00 7.6 °F -3.0 °F 1004.6 in Calm     47 % 0.0 in
20:15 7.4 °F -3.2 °F 1005.0 in Calm     47 % 0.0 in
20:30 7.3 °F -2.7 °F 1005.0 in Calm     49 % 0.0 in
20:45 7.2 °F -3.7 °F 1005.0 in Calm     46 % 0.0 in
21:00 6.9 °F -3.1 °F 1005.0 in Calm     49 % 0.0 in
21:15 6.6 °F -3.1 °F 1005.3 in Calm     50 % 0.0 in
21:30 6.6 °F -3.1 °F 1005.3 in Calm     50 % 0.0 in
21:45 6.3 °F -3.1 °F 1005.3 in Calm     51 % 0.0 in
22:00 6.0 °F -3.1 °F 1005.3 in Calm     52 % 0.0 in
22:15 5.7 °F -3.1 °F 1005.3 in Calm     53 % 0.0 in
22:30 5.4 °F -1.3 °F 1005.6 in Calm     62 % 0.0 in
22:45 5.0 °F -0.4 °F 1005.6 in Calm     68 % 0.0 in
23:00 4.6 °F -0.2 °F 1005.6 in Calm     71 % 0.0 in
23:15 4.2 °F -0.2 °F 1006.0 in Calm     73 % 0.0 in
23:30 4.0 °F 0.0 °F 1006.0 in Calm     75 % 0.0 in
23:45 3.7 °F 0.1 °F 1006.0 in Calm     77 % 0.0 in
Esan sääasema
Terveisin Weather Underground - 2.75 mb

Alkuperäinen skripti  Jim McMurry - jmcmurry@mwt.net Sovitettu myös templatelle  Wim van der Kuil - Leuven-Template.eu

Laitteet joita käytämme:

Sääasema
Davis VP2

Sääasemaohjelma
Cumulus

Sääaseman tietokone
Asus EeePC

Palveluntarjoaja
Suncomet

Davis VP2

Cumulus

Asus EeePC

Suncomet